LFBP/PUF METAR and TAF weather

Enter ICAO airport designator
Station Type Date Time Source
LFBP METAR 2020/02/27 13:00 UTC NOAA

LFBP 271300Z AUTO 25017KT 9000 -DZ FEW015 SCT030 BKN035 10/09 Q1017 TEMPO 27025G40KT 4000 RA OVC006


Station Type Date Time Source
LFBP Decoded METAR 2020/02/27 13:00 UTC NOAA

Pau, France (LFBP) 43-23N 000-25W 185M
Feb 27, 2020 - 08:00 AM EST / 2020.02.27 1300 UTC
Wind: from the WSW (250 degrees) at 20 MPH (17 KT):0
Visibility: 5 mile(s):0
Sky conditions: mostly cloudy
Weather: light drizzle
Temperature: 50 F (10 C)
Dew Point: 48 F (9 C)
Relative Humidity: 93%
Pressure (altimeter): 30.03 in. Hg (1017 hPa)
ob: LFBP 271300Z AUTO 25017KT 9000 -DZ FEW015 SCT030 BKN035 10/09 Q1017 TEMPO 27025G40KT 4000 RA OVC006
cycle: 13

Station Type Date Time Source
LFBP TAF 2020/02/27 12:42 UTC NOAA

TAF LFBP 271100Z 2712/2812 27015KT 9999 -RA BKN014 OVC040
TEMPO 2712/2715 27025G40KT PROB30
TEMPO 2712/2718 4000 RA OVC006
BECMG 2718/2720 27005KT 4000 -RA OVC006
BECMG 2804/2806 9999 NSW BKN012
BECMG 2807/2809 VRB03KT CAVOK

Example: see airport list